Time;durP1;ratioP1;P1;durP2;ratioP2;P2;SDS_P1;SDS_P2;PMS_P1;PMS_P2;Temp;Humidity;BMP_temperature;BMP_pressure;BME280_temperature;BME280_humidity;BME280_pressure;Samples;Min_cycle;Max_cycle;Signal;HPM_P1;HPM_P2
2023/09/28 00:00:43;;;;;;;;;;;;;;;18.12;100.00;99772.47;5012912;28;888;-59
2023/09/28 00:03:10;;;;;;;;;;;;;;;18.09;100.00;99776.97;5013009;28;854;-59
2023/09/28 00:05:37;;;;;;;;;;;;;;;18.13;100.00;99768.41;4995480;28;1371;-59
2023/09/28 00:08:04;;;;;;;;;;;;;;;18.11;100.00;99780.06;5013010;28;1943;-59
2023/09/28 00:10:30;;;;;;;;;;;;;;;18.12;100.00;99769.66;5012752;28;863;-60
2023/09/28 00:12:57;;;;;;;;;;;;;;;18.11;100.00;99763.28;5012784;28;1008;-59
2023/09/28 00:15:24;;;;;;;;;;;;;;;18.08;100.00;99774.59;5012408;28;1360;-59
2023/09/28 00:17:52;;;;;;;;;;;;;;;18.07;100.00;99775.84;5012627;28;855;-59
2023/09/28 00:20:20;;;;;;;;;;;;;;;18.07;100.00;99768.25;5012410;28;878;-59
2023/09/28 00:22:50;;;;;;;;;;;;;;;18.09;100.00;99764.97;5012744;28;824;-59
2023/09/28 00:25:19;;;;;;;;;;;;;;;18.11;100.00;99768.88;5012371;28;817;-59
2023/09/28 00:27:49;;;;;;;;;;;;;;;18.13;100.00;99771.22;5012332;28;1966;-58
2023/09/28 00:30:19;;;;;;;;;;;;;;;18.11;100.00;99776.47;5012396;28;971;-59
2023/09/28 00:32:49;;;;;;;;;;;;;;;18.12;100.00;99792.81;5012336;28;844;-59
2023/09/28 00:35:15;;;;;;;;;;;;;;;18.10;100.00;99795.28;5012258;28;895;-59
2023/09/28 00:37:41;;;;;;;;;;;;;;;18.13;100.00;99801.97;5012360;28;891;-59
2023/09/28 00:40:16;;;;;;;;;;;;;;;18.15;100.00;99794.69;5012215;28;851;-59
2023/09/28 00:42:47;;;;;;;;;;;;;;;18.16;100.00;99795.50;4994659;28;1196;-59
2023/09/28 00:45:13;;;;;;;;;;;;;;;18.14;100.00;99795.94;5012250;28;875;-60
2023/09/28 00:50:27;;;;;;;;;;;;;;;18.10;100.00;99802.91;5012610;28;724;-59
2023/09/28 00:53:12;;;;;;;;;;;;;;;18.11;100.00;99802.44;5012176;28;893;-60
2023/09/28 00:55:39;;;;;;;;;;;;;;;18.18;100.00;99790.22;5011941;28;919;-59
2023/09/28 00:58:06;;;;;;;;;;;;;;;18.18;100.00;99795.81;5012081;28;820;-59
2023/09/28 01:00:33;;;;;;;;;;;;;;;18.19;100.00;99796.59;5012197;28;832;-59
2023/09/28 01:03:02;;;;;;;;;;;;;;;18.21;100.00;99788.53;5012034;28;836;-59
2023/09/28 01:05:34;;;;;;;;;;;;;;;18.22;100.00;99792.88;5012165;28;1307;-59
2023/09/28 01:08:12;;;;;;;;;;;;;;;18.20;100.00;99792.56;5011904;28;1882;-59
2023/09/28 01:10:40;;;;;;;;;;;;;;;18.15;100.00;99797.50;5011850;28;931;-59
2023/09/28 01:13:10;;;;;;;;;;;;;;;18.14;100.00;99781.97;5012130;28;929;-59
2023/09/28 01:15:42;;;;;;;;;;;;;;;18.12;100.00;99789.25;5011945;28;1282;-59
2023/09/28 01:18:09;;;;;;;;;;;;;;;18.06;100.00;99780.66;5011838;28;837;-59
2023/09/28 01:20:37;;;;;;;;;;;;;;;18.03;100.00;99770.38;5011795;28;828;-59
2023/09/28 01:23:04;;;;;;;;;;;;;;;18.04;100.00;99776.75;5011781;28;828;-59
2023/09/28 01:25:31;;;;;;;;;;;;;;;18.07;100.00;99767.44;5011626;28;801;-59
2023/09/28 01:27:58;;;;;;;;;;;;;;;18.06;100.00;99755.47;5011722;28;2011;-59
2023/09/28 01:30:25;;;;;;;;;;;;;;;18.01;100.00;99764.47;4994110;28;883;-60
2023/09/28 01:32:52;;;;;;;;;;;;;;;18.00;100.00;99759.31;5011717;28;938;-59
2023/09/28 01:35:37;;;;;;;;;;;;;;;18.00;100.00;99757.28;5011710;28;935;-60
2023/09/28 01:38:21;;;;;;;;;;;;;;;17.94;100.00;99757.13;5011709;28;832;-60
2023/09/28 01:40:48;;;;;;;;;;;;;;;17.90;100.00;99759.25;5011581;28;907;-59
2023/09/28 01:43:16;;;;;;;;;;;;;;;17.90;100.00;99755.66;5011787;28;860;-59
2023/09/28 01:45:43;;;;;;;;;;;;;;;17.91;100.00;99760.03;5011874;28;1164;-59
2023/09/28 01:48:10;;;;;;;;;;;;;;;17.86;100.00;99752.22;5011815;28;1955;-59
2023/09/28 01:50:36;;;;;;;;;;;;;;;17.90;100.00;99747.28;5011998;28;1223;-59
2023/09/28 01:55:48;;;;;;;;;;;;;;;17.84;100.00;99758.28;5011558;28;622;-59
2023/09/28 01:58:16;;;;;;;;;;;;;;;17.87;100.00;99756.59;5011537;28;812;-59
2023/09/28 02:04:03;;;;;;;;;;;;;;;17.92;100.00;99761.59;5011566;28;646;-59
2023/09/28 02:06:29;;;;;;;;;;;;;;;17.89;100.00;99762.50;5011382;28;907;-62
2023/09/28 02:11:43;;;;;;;;;;;;;;;17.87;100.00;99756.59;5014918;28;734;-59
2023/09/28 02:14:13;;;;;;;;;;;;;;;17.96;100.00;99753.84;4996868;28;1217;-60
2023/09/28 02:16:40;;;;;;;;;;;;;;;17.98;100.00;99759.75;5014761;28;899;-59
2023/09/28 02:19:10;;;;;;;;;;;;;;;18.06;100.00;99758.28;5014659;28;1002;-59
2023/09/28 02:21:36;;;;;;;;;;;;;;;18.07;100.00;99756.25;5014736;28;817;-59
2023/09/28 02:24:04;;;;;;;;;;;;;;;18.07;100.00;99759.84;5014537;28;888;-59
2023/09/28 02:29:14;;;;;;;;;;;;;;;18.16;100.00;99753.53;5014556;28;873;-59
2023/09/28 02:31:41;;;;;;;;;;;;;;;18.16;100.00;99759.91;5014484;28;832;-59
2023/09/28 02:34:08;;;;;;;;;;;;;;;18.20;100.00;99764.56;5014356;28;836;-59
2023/09/28 02:36:35;;;;;;;;;;;;;;;18.22;100.00;99767.69;5014449;28;829;-59
2023/09/28 02:39:07;;;;;;;;;;;;;;;18.25;100.00;99759.19;5014361;28;883;-59
2023/09/28 02:41:35;;;;;;;;;;;;;;;18.31;100.00;99756.59;5014333;28;856;-59
2023/09/28 02:44:02;;;;;;;;;;;;;;;18.33;100.00;99762.50;5014307;28;888;-59
2023/09/28 02:46:28;;;;;;;;;;;;;;;18.32;100.00;99758.13;5014177;28;856;-59
2023/09/28 02:51:42;;;;;;;;;;;;;;;18.29;100.00;99768.22;5014080;28;864;-59
2023/09/28 02:54:09;;;;;;;;;;;;;;;18.23;100.00;99777.66;5014025;28;943;-59
2023/09/28 02:56:36;;;;;;;;;;;;;;;18.19;100.00;99780.59;5013963;28;935;-59
2023/09/28 02:59:02;;;;;;;;;;;;;;;18.25;100.00;99786.38;5014006;28;911;-59
2023/09/28 03:01:29;;;;;;;;;;;;;;;18.27;100.00;99781.88;5013929;28;888;-59
2023/09/28 03:03:56;;;;;;;;;;;;;;;18.29;100.00;99782.22;5013852;28;884;-59
2023/09/28 03:09:11;;;;;;;;;;;;;;;18.26;100.00;99794.31;5013739;28;669;-60
2023/09/28 03:11:41;;;;;;;;;;;;;;;18.24;100.00;99793.97;5013795;28;883;-59
2023/09/28 03:14:08;;;;;;;;;;;;;;;18.19;100.00;99800.16;4995872;28;1288;-59
2023/09/28 03:16:35;;;;;;;;;;;;;;;18.22;100.00;99806.88;5012493;28;821;-59
2023/09/28 03:19:02;;;;;;;;;;;;;;;18.24;100.00;99796.00;5012416;28;876;-59
2023/09/28 03:21:32;;;;;;;;;;;;;;;18.28;100.00;99793.84;5013598;28;813;-59
2023/09/28 03:24:01;;;;;;;;;;;;;;;18.29;100.00;99785.00;5013436;28;812;-60
2023/09/28 03:26:31;;;;;;;;;;;;;;;18.32;100.00;99789.69;5013400;28;907;-58
2023/09/28 03:29:17;;;;;;;;;;;;;;;18.37;100.00;99796.75;5013369;28;1969;-59
2023/09/28 03:31:43;;;;;;;;;;;;;;;18.42;100.00;99789.75;5013302;28;908;-59
2023/09/28 03:34:10;;;;;;;;;;;;;;;18.42;100.00;99798.94;5013365;28;923;-59
2023/09/28 03:36:37;;;;;;;;;;;;;;;18.47;100.00;99797.56;5013234;28;845;-59
2023/09/28 03:39:04;;;;;;;;;;;;;;;18.46;100.00;99802.38;5013237;28;904;-59
2023/09/28 03:41:30;;;;;;;;;;;;;;;18.47;100.00;99808.75;5013149;28;825;-59
2023/09/28 03:43:57;;;;;;;;;;;;;;;18.46;100.00;99801.59;5013143;28;813;-59
2023/09/28 03:46:23;;;;;;;;;;;;;;;18.51;100.00;99810.16;5013116;28;825;-59
2023/09/28 03:48:50;;;;;;;;;;;;;;;18.58;100.00;99811.91;5011795;28;1882;-59
2023/09/28 03:51:17;;;;;;;;;;;;;;;18.64;100.00;99810.09;5012965;28;851;-59
2023/09/28 03:53:43;;;;;;;;;;;;;;;18.70;100.00;99813.88;5012928;28;890;-59
2023/09/28 03:56:10;;;;;;;;;;;;;;;18.78;100.00;99800.41;5012979;28;848;-59
2023/09/28 03:58:36;;;;;;;;;;;;;;;18.81;100.00;99801.50;5013050;28;853;-59
2023/09/28 04:01:07;;;;;;;;;;;;;;;18.84;100.00;99809.78;5011634;28;1204;-59
2023/09/28 04:03:35;;;;;;;;;;;;;;;18.87;100.00;99805.28;5012748;28;899;-59
2023/09/28 04:06:02;;;;;;;;;;;;;;;18.86;100.00;99806.50;5012818;28;879;-59
2023/09/28 04:08:47;;;;;;;;;;;;;;;18.85;100.00;99811.31;5011353;28;1882;-59
2023/09/28 04:11:14;;;;;;;;;;;;;;;18.73;100.00;99812.16;5012658;28;895;-59
2023/09/28 04:16:26;;;;;;;;;;;;;;;18.46;100.00;99810.78;5012642;28;864;-59
2023/09/28 04:18:52;;;;;;;;;;;;;;;18.42;100.00;99815.72;5012552;28;832;-59
2023/09/28 04:21:19;;;;;;;;;;;;;;;18.41;100.00;99813.38;5012411;28;805;-59
2023/09/28 04:23:46;;;;;;;;;;;;;;;18.43;100.00;99811.66;5012495;28;829;-59
2023/09/28 04:26:12;;;;;;;;;;;;;;;18.53;100.00;99818.13;5012323;28;829;-59
2023/09/28 04:28:40;;;;;;;;;;;;;;;18.52;100.00;99808.94;5012394;28;1918;-59
2023/09/28 04:31:06;;;;;;;;;;;;;;;18.63;100.00;99816.16;5012002;28;832;-59
2023/09/28 04:33:33;;;;;;;;;;;;;;;18.73;100.00;99809.38;5012645;28;875;-59
2023/09/28 04:38:43;;;;;;;;;;;;;;;18.73;100.00;99806.56;5012322;28;824;-59
2023/09/28 04:41:11;;;;;;;;;;;;;;;18.72;100.00;99821.81;5012194;28;820;-58
2023/09/28 04:43:38;;;;;;;;;;;;;;;18.74;100.00;99814.50;5012384;28;871;-59
2023/09/28 04:46:05;;;;;;;;;;;;;;;18.76;100.00;99823.22;5012518;28;841;-59
2023/09/28 04:48:32;;;;;;;;;;;;;;;18.70;100.00;99819.47;5012021;28;1946;-59
2023/09/28 04:50:59;;;;;;;;;;;;;;;18.69;100.00;99825.50;5012035;28;829;-59
2023/09/28 04:53:26;;;;;;;;;;;;;;;18.70;100.00;99835.50;5012085;28;844;-59
2023/09/28 04:55:53;;;;;;;;;;;;;;;18.71;100.00;99837.03;5012271;28;858;-59
2023/09/28 04:58:38;;;;;;;;;;;;;;;18.73;100.00;99831.75;5012279;28;880;-59
2023/09/28 05:03:53;;;;;;;;;;;;;;;18.72;100.00;99842.19;5012137;28;639;-60
2023/09/28 05:06:20;;;;;;;;;;;;;;;18.72;100.00;99853.38;5011969;28;837;-59
2023/09/28 05:08:47;;;;;;;;;;;;;;;18.69;100.00;99845.91;5011867;28;1906;-60
2023/09/28 05:11:13;;;;;;;;;;;;;;;18.70;100.00;99843.88;5011968;28;820;-59
2023/09/28 05:13:59;;;;;;;;;;;;;;;18.70;100.00;99853.06;5011945;28;1339;-59
2023/09/28 05:16:25;;;;;;;;;;;;;;;18.72;100.00;99863.81;5012084;28;1199;-59
2023/09/28 05:18:51;;;;;;;;;;;;;;;18.76;100.00;99870.81;5011790;28;860;-59
2023/09/28 05:21:17;;;;;;;;;;;;;;;18.86;100.00;99860.50;5011676;28;892;-59
2023/09/28 05:23:44;;;;;;;;;;;;;;;18.94;100.00;99861.00;5011803;28;844;-58
2023/09/28 05:34:50;;;;;;;;;;;;;;;19.62;100.00;99877.16;5011678;28;895;-58
2023/09/28 05:37:15;;;;;;;;;;;;;;;19.76;100.00;99868.19;4994118;28;1308;-59
2023/09/28 05:39:41;;;;;;;;;;;;;;;19.87;100.00;99879.72;5011585;28;947;-59
2023/09/28 05:42:09;;;;;;;;;;;;;;;20.07;100.00;99875.69;5011873;28;830;-59
2023/09/28 05:44:36;;;;;;;;;;;;;;;20.20;100.00;99890.34;5015361;28;828;-58
2023/09/28 05:47:02;;;;;;;;;;;;;;;20.33;100.00;99881.78;5015316;28;1890;-58
2023/09/28 05:49:29;;;;;;;;;;;;;;;20.50;100.00;99877.41;5015140;28;828;-58
2023/09/28 05:51:56;;;;;;;;;;;;;;;20.71;100.00;99877.72;5015315;28;867;-58
2023/09/28 05:54:23;;;;;;;;;;;;;;;20.84;100.00;99869.88;5015144;28;871;-59
2023/09/28 05:56:50;;;;;;;;;;;;;;;21.04;100.00;99877.00;5015219;28;840;-58
2023/09/28 05:59:17;;;;;;;;;;;;;;;21.09;100.00;99879.97;5015298;28;901;-59
2023/09/28 06:01:44;;;;;;;;;;;;;;;21.26;100.00;99880.38;5015098;28;883;-59
2023/09/28 06:04:29;;;;;;;;;;;;;;;21.44;100.00;99870.34;5015091;28;829;-59
2023/09/28 06:06:56;;;;;;;;;;;;;;;21.53;100.00;99876.69;5015200;28;1882;-58
2023/09/28 06:09:23;;;;;;;;;;;;;;;21.45;100.00;99881.09;5015001;28;879;-58
2023/09/28 06:11:52;;;;;;;;;;;;;;;21.50;100.00;99872.00;5014889;28;872;-58
2023/09/28 06:14:38;;;;;;;;;;;;;;;21.52;100.00;99877.94;5014850;28;1227;-57
2023/09/28 06:17:05;;;;;;;;;;;;;;;21.56;100.00;99878.53;5014822;28;891;-58
2023/09/28 06:19:31;;;;;;;;;;;;;;;21.76;100.00;99880.78;5015044;28;836;-58
2023/09/28 06:21:59;;;;;;;;;;;;;;;21.81;100.00;99877.31;5014640;28;854;-58
2023/09/28 06:24:44;;;;;;;;;;;;;;;21.77;100.00;99875.94;5014651;28;825;-59
2023/09/28 06:27:11;;;;;;;;;;;;;;;21.56;100.00;99866.53;5014607;28;1961;-59
2023/09/28 06:29:37;;;;;;;;;;;;;;;21.49;100.00;99873.28;5014710;28;884;-58
2023/09/28 06:32:04;;;;;;;;;;;;;;;21.48;100.00;99877.34;5014624;28;939;-58
2023/09/28 06:34:49;;;;;;;;;;;;;;;21.43;100.00;99880.03;5014384;28;813;-58
2023/09/28 06:37:38;;;;;;;;;;;;;;;21.31;100.00;99874.09;5014600;28;876;-58
2023/09/28 06:40:06;;;;;;;;;;;;;;;21.23;100.00;99869.28;5014549;28;820;-58
2023/09/28 07:13:36;;;;;;;;;;;;;;;21.96;100.00;99901.94;5363849;23;1673;-58
2023/09/28 07:16:21;;;;;;;;;;;;;;;22.06;100.00;99903.41;4955434;29;868;-57
2023/09/28 07:18:49;;;;;;;;;;;;;;;22.11;100.00;99905.56;4955633;29;840;-57
2023/09/28 07:21:15;;;;;;;;;;;;;;;22.13;100.00;99916.34;4970089;28;1301;-57
2023/09/28 07:23:45;;;;;;;;;;;;;;;22.20;100.00;99915.97;4955270;29;907;-57
2023/09/28 07:26:14;;;;;;;;;;;;;;;22.26;100.00;99911.28;4955216;29;837;-58
2023/09/28 07:28:41;;;;;;;;;;;;;;;22.25;100.00;99923.00;4955091;29;1977;-58
2023/09/28 07:31:08;;;;;;;;;;;;;;;22.31;100.00;99926.72;4955124;29;989;-58
2023/09/28 07:33:35;;;;;;;;;;;;;;;22.27;100.00;99935.34;4955040;29;841;-58
2023/09/28 07:36:05;;;;;;;;;;;;;;;22.26;100.00;99944.28;4955045;29;809;-58
2023/09/28 07:38:32;;;;;;;;;;;;;;;22.27;100.00;99940.97;4955152;28;991;-57
2023/09/28 07:41:00;;;;;;;;;;;;;;;22.28;100.00;99941.78;4954965;29;880;-57
2023/09/28 07:43:26;;;;;;;;;;;;;;;22.18;100.00;99943.81;4954724;29;836;-58
2023/09/28 07:45:52;;;;;;;;;;;;;;;22.16;100.00;99940.72;4954904;29;817;-58
2023/09/28 07:48:19;;;;;;;;;;;;;;;22.13;100.00;99945.28;4954930;29;1954;-58
2023/09/28 07:53:31;;;;;;;;;;;;;;;22.32;100.00;99950.78;4954677;29;832;-57
2023/09/28 07:55:58;;;;;;;;;;;;;;;22.52;100.00;99953.00;4954765;29;903;-57
2023/09/28 07:58:25;;;;;;;;;;;;;;;22.67;100.00;99964.31;4954581;29;884;-58
2023/09/28 08:00:51;;;;;;;;;;;;;;;22.78;100.00;99965.28;4954814;29;896;-57
2023/09/28 08:03:18;;;;;;;;;;;;;;;22.81;100.00;99960.75;4954544;29;878;-57
2023/09/28 08:05:44;;;;;;;;;;;;;;;22.81;100.00;99958.69;4953942;28;893;-58
2023/09/28 08:11:14;;;;;;;;;;;;;;;22.71;100.00;99960.03;4954412;29;667;-59
2023/09/28 08:13:41;;;;;;;;;;;;;;;22.66;100.00;99968.38;4954234;29;1289;-60
2023/09/28 08:16:07;;;;;;;;;;;;;;;22.63;100.00;99959.63;4954307;29;846;-59
2023/09/28 08:18:33;;;;;;;;;;;;;;;22.51;100.00;99968.31;4954281;29;841;-60
2023/09/28 08:21:00;;;;;;;;;;;;;;;22.35;100.00;99966.72;4954277;29;824;-60
2023/09/28 08:23:46;;;;;;;;;;;;;;;22.28;100.00;99967.88;4954206;29;873;-57
2023/09/28 08:28:58;;;;;;;;;;;;;;;22.20;100.00;99975.09;4954084;29;1914;-59
2023/09/28 08:31:25;;;;;;;;;;;;;;;22.21;100.00;99977.44;4954179;29;856;-59
2023/09/28 08:33:52;;;;;;;;;;;;;;;22.15;100.00;99970.91;4954469;29;857;-59
2023/09/28 08:39:05;;;;;;;;;;;;;;;22.13;100.00;99970.59;4953978;29;628;-59
2023/09/28 08:41:42;;;;;;;;;;;;;;;22.15;100.00;99967.31;4953875;29;853;-59
2023/09/28 08:44:09;;;;;;;;;;;;;;;22.14;100.00;99974.19;4953919;29;884;-59
2023/09/28 08:46:39;;;;;;;;;;;;;;;22.20;100.00;99964.59;4953893;29;829;-60
2023/09/28 08:49:09;;;;;;;;;;;;;;;22.24;100.00;99958.84;4952555;29;1933;-59
2023/09/28 08:51:37;;;;;;;;;;;;;;;22.21;100.00;99959.75;4953778;29;893;-59
2023/09/28 08:54:05;;;;;;;;;;;;;;;22.15;100.00;99959.66;4953833;29;805;-59
2023/09/28 08:56:46;;;;;;;;;;;;;;;22.08;100.00;99959.97;4953765;29;836;-59
2023/09/28 08:59:12;;;;;;;;;;;;;;;22.09;100.00;99950.28;4953791;29;934;-59
2023/09/28 09:01:40;;;;;;;;;;;;;;;22.01;100.00;99949.09;4953786;29;872;-59
2023/09/28 09:04:07;;;;;;;;;;;;;;;21.93;100.00;99959.91;4953616;29;853;-59
2023/09/28 09:06:51;;;;;;;;;;;;;;;21.90;100.00;99948.84;4953750;29;810;-59
2023/09/28 09:09:18;;;;;;;;;;;;;;;21.94;100.00;99953.03;4953531;29;1949;-59
2023/09/28 09:11:50;;;;;;;;;;;;;;;22.09;100.00;99957.97;4953612;29;789;-59
2023/09/28 09:14:17;;;;;;;;;;;;;;;22.19;100.00;99946.19;4953396;29;1560;-59
2023/09/28 09:17:02;;;;;;;;;;;;;;;22.28;100.00;99947.41;4954859;28;809;-59
2023/09/28 09:19:32;;;;;;;;;;;;;;;22.37;100.00;99941.69;4957507;29;875;-59
2023/09/28 09:24:56;;;;;;;;;;;;;;;22.55;100.00;99932.31;4957422;29;1083;-59
2023/09/28 09:27:28;;;;;;;;;;;;;;;22.56;100.00;99937.47;4957282;29;1910;-59
2023/09/28 09:30:15;;;;;;;;;;;;;;;22.60;100.00;99934.47;4957356;29;927;-60
2023/09/28 09:32:42;;;;;;;;;;;;;;;22.60;100.00;99951.38;4957407;29;817;-59
2023/09/28 09:35:10;;;;;;;;;;;;;;;22.66;100.00;99945.81;4957312;29;903;-60
2023/09/28 09:37:41;;;;;;;;;;;;;;;22.66;100.00;99943.81;4957377;29;856;-60
2023/09/28 09:40:11;;;;;;;;;;;;;;;22.55;100.00;99944.38;4957009;29;857;-60
2023/09/28 09:42:38;;;;;;;;;;;;;;;22.49;100.00;99935.03;4957168;29;829;-59
2023/09/28 09:45:05;;;;;;;;;;;;;;;22.43;100.00;99949.00;4957313;29;904;-59
2023/09/28 09:50:17;;;;;;;;;;;;;;;22.56;100.00;99937.47;4956951;29;831;-59
2023/09/28 09:52:44;;;;;;;;;;;;;;;22.61;100.00;99936.00;4957068;29;876;-59
2023/09/28 09:55:12;;;;;;;;;;;;;;;22.71;100.00;99936.72;4956985;29;895;-59
2023/09/28 09:57:40;;;;;;;;;;;;;;;22.71;100.00;99928.28;4956824;29;833;-59
2023/09/28 10:00:25;;;;;;;;;;;;;;;22.77;100.00;99927.09;4956903;29;861;-59
2023/09/28 10:05:39;;;;;;;;;;;;;;;22.89;100.00;99924.50;4956782;29;810;-59
2023/09/28 10:11:10;;;;;;;;;;;;;;;23.03;100.00;99926.56;4956549;29;655;-59
2023/09/28 10:13:37;;;;;;;;;;;;;;;23.12;100.00;99918.00;4956478;29;1228;-59
2023/09/28 10:16:04;;;;;;;;;;;;;;;23.22;100.00;99919.47;4956530;29;1224;-59
2023/09/28 10:18:30;;;;;;;;;;;;;;;23.44;100.00;99921.84;4956567;29;1197;-59
2023/09/28 10:21:02;;;;;;;;;;;;;;;23.67;100.00;99933.50;4956398;28;1008;-58
2023/09/28 10:23:47;;;;;;;;;;;;;;;23.70;100.00;99928.91;4956464;29;868;-59
2023/09/28 10:26:17;;;;;;;;;;;;;;;23.71;100.00;99931.25;4956501;29;896;-58
2023/09/28 10:29:05;;;;;;;;;;;;;;;24.08;100.00;99936.41;4955643;28;1911;-59
2023/09/28 10:31:33;;;;;;;;;;;;;;;24.22;100.00;99924.25;4956290;29;892;-59
2023/09/28 10:34:04;;;;;;;;;;;;;;;24.36;100.00;99927.50;4956214;29;872;-58
2023/09/28 10:36:32;;;;;;;;;;;;;;;24.63;100.00;99927.06;4956200;29;873;-58
2023/09/28 10:39:13;;;;;;;;;;;;;;;24.89;100.00;99917.81;4956068;29;929;-59
2023/09/28 10:41:44;;;;;;;;;;;;;;;25.50;100.00;99914.00;4956068;29;832;-59
2023/09/28 10:44:14;;;;;;;;;;;;;;;26.09;100.00;99915.38;4956007;29;849;-59
2023/09/28 10:46:41;;;;;;;;;;;;;;;26.27;100.00;99917.78;4955963;29;842;-59
2023/09/28 10:51:54;;;;;;;;;;;;;;;26.68;100.00;99908.13;4955907;29;675;-58
2023/09/28 10:54:20;;;;;;;;;;;;;;;26.53;100.00;99902.66;4955902;29;867;-58
2023/09/28 10:56:51;;;;;;;;;;;;;;;26.58;100.00;99892.66;4955801;29;824;-59
2023/09/28 10:59:21;;;;;;;;;;;;;;;26.36;100.00;99887.66;4955816;29;825;-59
2023/09/28 11:01:48;;;;;;;;;;;;;;;25.89;100.00;99888.00;4955696;29;832;-59
2023/09/28 11:04:15;;;;;;;;;;;;;;;25.78;100.00;99887.91;4955684;29;936;-58
2023/09/28 11:06:43;;;;;;;;;;;;;;;25.50;100.00;99877.22;4954297;29;797;-59
2023/09/28 11:12:14;;;;;;;;;;;;;;;24.83;100.00;99878.19;4955926;29;816;-59
2023/09/28 11:14:42;;;;;;;;;;;;;;;24.77;100.00;99873.75;4955393;29;1268;-59
2023/09/28 11:17:10;;;;;;;;;;;;;;;24.68;100.00;99873.94;4955435;29;832;-59
2023/09/28 11:19:37;;;;;;;;;;;;;;;24.76;100.00;99872.22;4955300;29;869;-59
2023/09/28 11:22:05;;;;;;;;;;;;;;;24.84;100.00;99870.50;4955426;29;813;-59
2023/09/28 11:24:49;;;;;;;;;;;;;;;25.14;100.00;99871.00;4955314;29;1017;-59
2023/09/28 11:27:16;;;;;;;;;;;;;;;25.48;100.00;99882.59;4955215;29;1981;-59
2023/09/28 11:30:03;;;;;;;;;;;;;;;25.67;100.00;99875.25;4955211;29;892;-59
2023/09/28 11:32:48;;;;;;;;;;;;;;;25.86;100.00;99871.97;4955202;29;884;-59
2023/09/28 11:35:15;;;;;;;;;;;;;;;25.89;100.00;99871.00;4955120;29;935;-59
2023/09/28 11:40:28;;;;;;;;;;;;;;;25.80;100.00;99871.22;4954323;28;893;-59
2023/09/28 11:42:58;;;;;;;;;;;;;;;25.92;100.00;99860.72;4954843;29;860;-59
2023/09/28 11:45:28;;;;;;;;;;;;;;;26.22;100.00;99864.72;4955058;29;805;-59
2023/09/28 11:53:25;;;;;;;;;;;;;;;27.54;92.41;99856.56;4954759;29;834;-59
2023/09/28 11:55:52;;;;;;;;;;;;;;;27.98;88.48;99845.63;4954692;29;876;-57
2023/09/28 12:01:05;;;;;;;;;;;;;;;29.03;75.34;99842.63;4954703;29;675;-58
2023/09/28 12:03:32;;;;;;;;;;;;;;;28.61;74.77;99839.06;4954719;29;833;-58
2023/09/28 12:06:00;;;;;;;;;;;;;;;28.85;74.05;99840.47;4955273;29;840;-58
2023/09/28 12:08:28;;;;;;;;;;;;;;;29.39;72.35;99848.25;4954460;29;1887;-58
2023/09/28 12:10:57;;;;;;;;;;;;;;;29.70;70.58;99843.28;4954438;29;826;-57
2023/09/28 12:13:52;;;;;;;;;;;;;;;29.84;67.29;99839.22;4954329;29;1368;-57
2023/09/28 12:16:22;;;;;;;;;;;;;;;29.06;67.06;99841.56;4954371;29;829;-57
2023/09/28 12:18:49;;;;;;;;;;;;;;;28.42;68.73;99846.66;4954372;29;908;-57
2023/09/28 12:21:35;;;;;;;;;;;;;;;27.93;69.77;99840.72;4954255;29;832;-57
2023/09/28 12:26:48;;;;;;;;;;;;;;;28.34;68.86;99835.09;4954269;29;885;-58
2023/09/28 12:29:17;;;;;;;;;;;;;;;28.04;69.35;99832.94;4954265;29;1910;-58
2023/09/28 12:31:44;;;;;;;;;;;;;;;27.99;69.42;99832.94;4954338;29;829;-58
2023/09/28 12:34:30;;;;;;;;;;;;;;;27.78;69.65;99836.13;4954049;29;865;-58
2023/09/28 12:36:57;;;;;;;;;;;;;;;27.43;70.95;99831.81;4954035;29;897;-58
2023/09/28 12:39:24;;;;;;;;;;;;;;;27.51;70.50;99825.63;4954013;29;886;-58
2023/09/28 12:41:58;;;;;;;;;;;;;;;27.56;70.09;99825.59;4954006;29;892;-58
2023/09/28 12:47:10;;;;;;;;;;;;;;;27.61;69.68;99833.34;4953850;29;1887;-60
2023/09/28 12:49:36;;;;;;;;;;;;;;;28.34;67.91;99818.03;4953890;29;872;-60
2023/09/28 12:55:07;;;;;;;;;;;;;;;29.33;65.02;99812.63;4954170;29;623;-60
2023/09/28 12:57:34;;;;;;;;;;;;;;;30.00;62.84;99805.34;4953885;29;917;-60
2023/09/28 13:00:10;;;;;;;;;;;;;;;30.06;62.79;99808.91;4953642;29;857;-59
2023/09/28 13:02:37;;;;;;;;;;;;;;;30.04;61.58;99828.63;4953733;29;1153;-59
2023/09/28 13:05:06;;;;;;;;;;;;;;;28.73;65.54;99824.78;4953865;29;876;-57
2023/09/28 13:07:33;;;;;;;;;;;;;;;27.09;70.83;99829.00;4953524;29;1890;-59
2023/09/28 13:09:59;;;;;;;;;;;;;;;25.82;76.50;99838.28;4952397;29;952;-59
2023/09/28 13:12:26;;;;;;;;;;;;;;;24.90;81.52;99848.72;4953695;29;910;-59
2023/09/28 13:14:53;;;;;;;;;;;;;;;24.12;90.60;99840.97;4969456;28;1309;-59
2023/09/28 13:17:20;;;;;;;;;;;;;;;23.29;100.00;99839.34;4972864;28;912;-59
2023/09/28 13:19:48;;;;;;;;;;;;;;;22.78;100.00;99841.31;4972919;28;872;-59
2023/09/28 13:22:15;;;;;;;;;;;;;;;22.77;100.00;99841.81;4973076;28;904;-60
2023/09/28 13:24:41;;;;;;;;;;;;;;;23.01;100.00;99825.59;4972923;28;820;-60
2023/09/28 13:27:16;;;;;;;;;;;;;;;23.08;100.00;99827.22;4972739;28;1918;-60
2023/09/28 13:29:43;;;;;;;;;;;;;;;22.99;100.00;99830.13;4972785;28;1175;-60
2023/09/28 13:32:13;;;;;;;;;;;;;;;23.18;100.00;99822.25;4972748;28;872;-60
2023/09/28 13:34:40;;;;;;;;;;;;;;;23.38;97.44;99824.34;4972836;28;896;-59
2023/09/28 13:37:06;;;;;;;;;;;;;;;23.57;95.39;99824.84;4972625;28;817;-60
2023/09/28 13:39:36;;;;;;;;;;;;;;;23.69;94.30;99825.78;4972760;28;880;-60
2023/09/28 13:42:04;;;;;;;;;;;;;;;23.68;92.71;99816.53;4972798;28;864;-60
2023/09/28 13:44:31;;;;;;;;;;;;;;;23.66;92.53;99821.88;4972667;28;841;-60
2023/09/28 13:46:59;;;;;;;;;;;;;;;23.62;92.52;99824.16;4972678;28;939;-59
2023/09/28 13:49:27;;;;;;;;;;;;;;;23.58;92.66;99824.38;4972500;28;1882;-60
2023/09/28 13:51:58;;;;;;;;;;;;;;;23.54;92.83;99834.31;4972618;28;823;-59
2023/09/28 13:54:28;;;;;;;;;;;;;;;23.52;93.23;99843.25;4972508;28;887;-59
2023/09/28 13:56:58;;;;;;;;;;;;;;;23.53;93.51;99846.84;4972551;28;872;-59
2023/09/28 13:59:25;;;;;;;;;;;;;;;23.57;93.45;99836.13;4972737;28;828;-59
2023/09/28 14:01:52;;;;;;;;;;;;;;;23.63;93.80;99832.13;4972547;28;828;-59
2023/09/28 14:04:20;;;;;;;;;;;;;;;23.72;93.88;99834.03;4974454;28;877;-58
2023/09/28 14:06:47;;;;;;;;;;;;;;;23.79;93.40;99833.66;4975865;28;920;-59
2023/09/28 14:09:18;;;;;;;;;;;;;;;23.89;93.12;99827.84;4975967;28;1883;-59
2023/09/28 14:11:47;;;;;;;;;;;;;;;23.96;93.77;99833.06;4976016;28;888;-59
2023/09/28 14:14:17;;;;;;;;;;;;;;;24.02;94.45;99829.03;4957190;28;1305;-59
2023/09/28 14:16:44;;;;;;;;;;;;;;;24.08;95.57;99839.63;4956626;29;856;-59
2023/09/28 14:19:11;;;;;;;;;;;;;;;24.11;96.18;99841.44;4956427;29;825;-59
2023/09/28 14:21:38;;;;;;;;;;;;;;;24.20;96.11;99844.91;4956489;29;821;-59
2023/09/28 14:24:10;;;;;;;;;;;;;;;24.23;96.97;99840.31;4956316;29;892;-59
2023/09/28 14:26:37;;;;;;;;;;;;;;;24.21;97.83;99843.63;4956411;29;827;-59
2023/09/28 14:29:04;;;;;;;;;;;;;;;24.20;98.46;99838.50;4956183;29;1907;-59
2023/09/28 14:31:31;;;;;;;;;;;;;;;24.13;100.00;99839.72;4956307;29;853;-59
2023/09/28 14:33:59;;;;;;;;;;;;;;;24.07;100.00;99843.72;4956252;28;907;-59
2023/09/28 14:36:26;;;;;;;;;;;;;;;24.03;100.00;99847.53;4956139;29;877;-59
2023/09/28 14:38:52;;;;;;;;;;;;;;;23.96;100.00;99850.81;4956103;29;908;-59
2023/09/28 14:41:20;;;;;;;;;;;;;;;23.91;100.00;99850.72;4956119;29;868;-59
2023/09/28 14:43:47;;;;;;;;;;;;;;;23.84;100.00;99852.69;4956051;29;856;-59
2023/09/28 14:46:14;;;;;;;;;;;;;;;23.75;100.00;99852.81;4956004;29;852;-59
2023/09/28 14:48:42;;;;;;;;;;;;;;;23.71;100.00;99857.88;4955905;29;1891;-59
2023/09/28 14:51:09;;;;;;;;;;;;;;;23.65;100.00;99851.38;4955923;29;885;-59
2023/09/28 14:53:36;;;;;;;;;;;;;;;23.65;100.00;99857.03;4955906;29;900;-59
2023/09/28 14:56:02;;;;;;;;;;;;;;;23.63;100.00;99868.03;4954609;29;1310;-59
2023/09/28 14:58:29;;;;;;;;;;;;;;;23.59;100.00;99865.41;4955875;29;837;-59
2023/09/28 15:00:56;;;;;;;;;;;;;;;23.57;100.00;99867.16;4955978;29;929;-59
2023/09/28 15:03:23;;;;;;;;;;;;;;;23.54;100.00;99870.97;4955764;29;923;-59